sensor_id;sensor_type;location;lat;lon;timestamp;pressure;altitude;pressure_sealevel;temperature;humidity
10482;BME280;5288;42.334;23.876;2023-06-19T00:00:00;56308.34;;;-140.56;93.52
10482;BME280;5288;42.334;23.876;2023-06-19T00:02:29;56310.31;;;-140.56;94.97
10482;BME280;5288;42.334;23.876;2023-06-19T00:04:56;56351.81;;;-140.56;96.79
10482;BME280;5288;42.334;23.876;2023-06-19T00:07:23;56341.94;;;-140.56;98.37
10482;BME280;5288;42.334;23.876;2023-06-19T00:09:50;56326.13;;;-140.56;98.84
10482;BME280;5288;42.334;23.876;2023-06-19T00:12:17;56330.06;;;-140.56;100.00
10482;BME280;5288;42.334;23.876;2023-06-19T00:14:44;56347.84;;;-140.56;100.00
10482;BME280;5288;42.334;23.876;2023-06-19T00:17:12;56341.94;;;-140.56;100.00
10482;BME280;5288;42.334;23.876;2023-06-19T00:19:43;56353.78;;;-140.56;100.00
10482;BME280;5288;42.334;23.876;2023-06-19T00:22:10;56320.19;;;-140.56;100.00
10482;BME280;5288;42.334;23.876;2023-06-19T00:24:37;56361.69;;;-140.56;100.00
10482;BME280;5288;42.334;23.876;2023-06-19T00:27:05;56353.78;;;-140.56;100.00
10482;BME280;5288;42.334;23.876;2023-06-19T00:29:33;56377.50;;;-140.56;100.00
10482;BME280;5288;42.334;23.876;2023-06-19T00:32:00;56326.13;;;-140.56;100.00
10482;BME280;5288;42.334;23.876;2023-06-19T00:34:29;56312.28;;;-140.56;100.00
10482;BME280;5288;42.334;23.876;2023-06-19T00:36:57;56341.94;;;-140.56;100.00
10482;BME280;5288;42.334;23.876;2023-06-19T00:39:25;56326.13;;;-140.56;100.00
10482;BME280;5288;42.334;23.876;2023-06-19T00:41:53;56312.28;;;-140.56;100.00
10482;BME280;5288;42.334;23.876;2023-06-19T00:44:20;56345.88;;;-140.56;100.00
10482;BME280;5288;42.334;23.876;2023-06-19T00:46:51;56383.44;;;-140.56;100.00
10482;BME280;5288;42.334;23.876;2023-06-19T00:49:19;56375.53;;;-140.56;100.00
10482;BME280;5288;42.334;23.876;2023-06-19T00:51:47;56371.56;;;-140.56;100.00
10482;BME280;5288;42.334;23.876;2023-06-19T00:54:15;56361.69;;;-140.56;100.00
10482;BME280;5288;42.334;23.876;2023-06-19T00:56:44;56328.09;;;-140.56;100.00
10482;BME280;5288;42.334;23.876;2023-06-19T00:59:14;56330.06;;;-140.56;100.00
10482;BME280;5288;42.334;23.876;2023-06-19T01:01:42;56363.66;;;-140.56;100.00
10482;BME280;5288;42.334;23.876;2023-06-19T01:04:09;56369.59;;;-140.56;100.00
10482;BME280;5288;42.334;23.876;2023-06-19T01:06:42;56341.94;;;-140.56;100.00
10482;BME280;5288;42.334;23.876;2023-06-19T01:09:11;56381.44;;;-140.56;100.00
10482;BME280;5288;42.334;23.876;2023-06-19T01:11:46;56337.97;;;-140.56;100.00
10482;BME280;5288;42.334;23.876;2023-06-19T01:14:17;56326.13;;;-140.56;100.00
10482;BME280;5288;42.334;23.876;2023-06-19T01:16:45;56375.53;;;-140.56;100.00
10482;BME280;5288;42.334;23.876;2023-06-19T01:19:17;56337.97;;;-140.56;100.00
10482;BME280;5288;42.334;23.876;2023-06-19T01:21:45;56399.25;;;-140.56;100.00
10482;BME280;5288;42.334;23.876;2023-06-19T01:24:14;56369.59;;;-140.56;100.00
10482;BME280;5288;42.334;23.876;2023-06-19T01:26:41;56322.16;;;-140.56;100.00
10482;BME280;5288;42.334;23.876;2023-06-19T01:29:12;56349.84;;;-140.56;100.00
10482;BME280;5288;42.334;23.876;2023-06-19T01:31:46;56349.84;;;-140.56;100.00
10482;BME280;5288;42.334;23.876;2023-06-19T01:34:18;56365.66;;;-140.56;100.00
10482;BME280;5288;42.334;23.876;2023-06-19T01:36:47;56343.91;;;-140.56;100.00
10482;BME280;5288;42.334;23.876;2023-06-19T01:39:17;56361.69;;;-140.56;100.00
10482;BME280;5288;42.334;23.876;2023-06-19T01:41:45;56367.63;;;-140.56;100.00
10482;BME280;5288;42.334;23.876;2023-06-19T01:44:13;56328.09;;;-140.56;100.00
10482;BME280;5288;42.334;23.876;2023-06-19T01:46:40;56353.78;;;-140.56;100.00
10482;BME280;5288;42.334;23.876;2023-06-19T01:49:08;56337.97;;;-140.56;100.00
10482;BME280;5288;42.334;23.876;2023-06-19T01:51:36;56393.31;;;-140.56;100.00
10482;BME280;5288;42.334;23.876;2023-06-19T01:54:03;56349.84;;;-140.56;100.00
10482;BME280;5288;42.334;23.876;2023-06-19T01:56:32;56324.13;;;-140.56;100.00
10482;BME280;5288;42.334;23.876;2023-06-19T01:58:59;56334.03;;;-140.56;100.00
10482;BME280;5288;42.334;23.876;2023-06-19T02:01:26;56318.22;;;-140.56;100.00
10482;BME280;5288;42.334;23.876;2023-06-19T02:03:53;56383.44;;;-140.56;97.62
10482;BME280;5288;42.334;23.876;2023-06-19T02:06:20;56377.50;;;-140.56;98.15
10482;BME280;5288;42.334;23.876;2023-06-19T02:08:48;56369.59;;;-140.56;98.52
10482;BME280;5288;42.334;23.876;2023-06-19T02:11:15;56387.38;;;-140.56;97.78
10482;BME280;5288;42.334;23.876;2023-06-19T02:13:43;56320.19;;;-140.56;98.07
10482;BME280;5288;42.334;23.876;2023-06-19T02:16:10;56353.78;;;-140.56;96.88
10482;BME280;5288;42.334;23.876;2023-06-19T02:18:37;56355.75;;;-140.56;97.68
10482;BME280;5288;42.334;23.876;2023-06-19T02:21:04;56343.91;;;-140.56;98.88
10482;BME280;5288;42.334;23.876;2023-06-19T02:23:31;56349.84;;;-140.56;98.91
10482;BME280;5288;42.334;23.876;2023-06-19T02:25:58;56306.34;;;-140.56;98.92
10482;BME280;5288;42.334;23.876;2023-06-19T02:28:25;56363.66;;;-140.56;99.07
10482;BME280;5288;42.334;23.876;2023-06-19T02:30:54;56337.97;;;-140.56;99.33
10482;BME280;5288;42.334;23.876;2023-06-19T02:33:21;56314.25;;;-140.56;99.26
10482;BME280;5288;42.334;23.876;2023-06-19T02:35:48;56334.03;;;-140.56;99.33
10482;BME280;5288;42.334;23.876;2023-06-19T02:38:15;56314.25;;;-140.56;99.32
10482;BME280;5288;42.334;23.876;2023-06-19T02:40:46;56330.06;;;-140.56;96.09
10482;BME280;5288;42.334;23.876;2023-06-19T02:43:13;56349.84;;;-140.56;96.81
10482;BME280;5288;42.334;23.876;2023-06-19T02:45:41;56337.97;;;-140.56;97.06
10482;BME280;5288;42.334;23.876;2023-06-19T02:48:09;56302.41;;;-140.56;96.20
10482;BME280;5288;42.334;23.876;2023-06-19T02:50:36;56296.47;;;-140.56;94.74
10482;BME280;5288;42.334;23.876;2023-06-19T02:53:03;56365.66;;;-140.56;94.16
10482;BME280;5288;42.334;23.876;2023-06-19T02:55:30;56359.72;;;-140.56;94.40
10482;BME280;5288;42.334;23.876;2023-06-19T02:57:57;56322.16;;;-140.56;95.34
10482;BME280;5288;42.334;23.876;2023-06-19T03:00:25;56332.03;;;-140.56;98.32
10482;BME280;5288;42.334;23.876;2023-06-19T03:02:54;56353.78;;;-140.56;98.46
10482;BME280;5288;42.334;23.876;2023-06-19T03:05:22;56387.38;;;-140.56;99.27
10482;BME280;5288;42.334;23.876;2023-06-19T03:07:49;56339.94;;;-140.56;100.00
10482;BME280;5288;42.334;23.876;2023-06-19T03:10:16;56337.97;;;-140.56;100.00
10482;BME280;5288;42.334;23.876;2023-06-19T03:12:43;56383.44;;;-140.56;100.00
10482;BME280;5288;42.334;23.876;2023-06-19T03:15:10;56341.94;;;-140.56;100.00
10482;BME280;5288;42.334;23.876;2023-06-19T03:17:37;56351.81;;;-140.56;100.00
10482;BME280;5288;42.334;23.876;2023-06-19T03:20:05;56337.97;;;-140.56;100.00
10482;BME280;5288;42.334;23.876;2023-06-19T03:22:39;56371.56;;;-140.56;100.00
10482;BME280;5288;42.334;23.876;2023-06-19T03:25:07;56347.84;;;-140.56;100.00
10482;BME280;5288;42.334;23.876;2023-06-19T03:27:34;56339.94;;;-140.56;100.00
10482;BME280;5288;42.334;23.876;2023-06-19T03:30:02;56343.91;;;-140.56;100.00
10482;BME280;5288;42.334;23.876;2023-06-19T03:32:32;56337.97;;;-140.56;100.00
10482;BME280;5288;42.334;23.876;2023-06-19T03:34:59;56359.72;;;-140.56;100.00
10482;BME280;5288;42.334;23.876;2023-06-19T03:37:26;56349.84;;;-140.56;100.00
10482;BME280;5288;42.334;23.876;2023-06-19T03:39:54;56359.72;;;-140.56;100.00
10482;BME280;5288;42.334;23.876;2023-06-19T03:42:21;56334.03;;;-140.56;100.00
10482;BME280;5288;42.334;23.876;2023-06-19T03:44:48;56357.75;;;-140.56;100.00
10482;BME280;5288;42.334;23.876;2023-06-19T03:47:15;56337.97;;;-140.56;100.00
10482;BME280;5288;42.334;23.876;2023-06-19T03:49:42;56373.56;;;-140.56;100.00
10482;BME280;5288;42.334;23.876;2023-06-19T03:52:09;56353.78;;;-140.56;100.00
10482;BME280;5288;42.334;23.876;2023-06-19T03:54:36;56351.81;;;-140.56;100.00
10482;BME280;5288;42.334;23.876;2023-06-19T03:57:06;56387.38;;;-140.56;100.00
10482;BME280;5288;42.334;23.876;2023-06-19T03:59:34;56334.03;;;-140.56;99.89
10482;BME280;5288;42.334;23.876;2023-06-19T04:02:01;56330.06;;;-140.56;100.00
10482;BME280;5288;42.334;23.876;2023-06-19T04:04:28;56322.16;;;-140.56;100.00
10482;BME280;5288;42.334;23.876;2023-06-19T04:06:55;56341.94;;;-140.56;100.00
10482;BME280;5288;42.334;23.876;2023-06-19T04:09:22;56330.06;;;-140.56;100.00
10482;BME280;5288;42.334;23.876;2023-06-19T04:11:49;56318.22;;;-140.56;100.00
10482;BME280;5288;42.334;23.876;2023-06-19T04:14:18;56337.97;;;-140.56;100.00
10482;BME280;5288;42.334;23.876;2023-06-19T04:16:45;56318.22;;;-140.56;100.00
10482;BME280;5288;42.334;23.876;2023-06-19T04:19:12;56334.03;;;-140.56;99.52
10482;BME280;5288;42.334;23.876;2023-06-19T04:21:39;56320.19;;;-140.56;99.25
10482;BME280;5288;42.334;23.876;2023-06-19T04:24:06;56306.34;;;-140.56;99.00
10482;BME280;5288;42.334;23.876;2023-06-19T04:26:34;56328.09;;;-140.56;98.27
10482;BME280;5288;42.334;23.876;2023-06-19T04:29:01;56330.06;;;-140.56;98.08
10482;BME280;5288;42.334;23.876;2023-06-19T04:31:30;56326.13;;;-140.56;98.70
10482;BME280;5288;42.334;23.876;2023-06-19T04:33:57;56330.06;;;-140.56;98.20
10482;BME280;5288;42.334;23.876;2023-06-19T04:36:24;56334.03;;;-140.56;97.46
10482;BME280;5288;42.334;23.876;2023-06-19T04:38:51;56336.00;;;-140.56;96.20
10482;BME280;5288;42.334;23.876;2023-06-19T04:41:18;56332.03;;;-140.56;95.79
10482;BME280;5288;42.334;23.876;2023-06-19T04:43:45;56284.63;;;-140.56;95.06
10482;BME280;5288;42.334;23.876;2023-06-19T04:46:12;56300.44;;;-140.56;94.07
10482;BME280;5288;42.334;23.876;2023-06-19T04:48:40;56278.69;;;-140.56;93.40
10482;BME280;5288;42.334;23.876;2023-06-19T04:51:07;56312.28;;;-140.56;92.49
10482;BME280;5288;42.334;23.876;2023-06-19T04:53:50;56312.28;;;-140.56;93.07
10482;BME280;5288;42.334;23.876;2023-06-19T04:56:17;56304.38;;;-140.56;92.22
10482;BME280;5288;42.334;23.876;2023-06-19T04:58:44;56306.34;;;-140.56;91.64
10482;BME280;5288;42.334;23.876;2023-06-19T05:01:12;56310.31;;;-140.56;91.56
10482;BME280;5288;42.334;23.876;2023-06-19T05:03:42;56302.41;;;-140.56;90.71
10482;BME280;5288;42.334;23.876;2023-06-19T05:06:11;56294.50;;;-140.56;90.48
10482;BME280;5288;42.334;23.876;2023-06-19T05:08:38;56286.59;;;-140.56;91.15
10482;BME280;5288;42.334;23.876;2023-06-19T05:11:05;56290.53;;;-140.56;90.66
10482;BME280;5288;42.334;23.876;2023-06-19T05:13:32;56262.88;;;-140.56;89.58
10482;BME280;5288;42.334;23.876;2023-06-19T05:15:59;56284.63;;;-140.56;88.88
10482;BME280;5288;42.334;23.876;2023-06-19T05:18:26;56274.72;;;-140.56;89.42
10482;BME280;5288;42.334;23.876;2023-06-19T05:20:54;56278.69;;;-140.56;88.60
10482;BME280;5288;42.334;23.876;2023-06-19T05:23:21;56280.66;;;-140.56;88.22
10482;BME280;5288;42.334;23.876;2023-06-19T05:25:48;56251.03;;;-140.56;87.15
10482;BME280;5288;42.334;23.876;2023-06-19T05:28:15;56280.66;;;-140.56;88.07
10482;BME280;5288;42.334;23.876;2023-06-19T05:30:42;56276.72;;;-140.56;87.09
10482;BME280;5288;42.334;23.876;2023-06-19T05:33:10;56256.94;;;-140.56;87.70
10482;BME280;5288;42.334;23.876;2023-06-19T05:35:41;56266.81;;;-140.56;87.09
10482;BME280;5288;42.334;23.876;2023-06-19T05:38:10;56264.84;;;-140.56;86.01
10482;BME280;5288;42.334;23.876;2023-06-19T05:40:37;56253.00;;;-140.56;85.09
10482;BME280;5288;42.334;23.876;2023-06-19T05:43:03;56247.06;;;-140.56;85.15
10482;BME280;5288;42.334;23.876;2023-06-19T05:45:31;56264.84;;;-140.56;85.13
10482;BME280;5288;42.334;23.876;2023-06-19T05:47:58;56251.03;;;-140.56;84.79
10482;BME280;5288;42.334;23.876;2023-06-19T05:50:25;56268.81;;;-140.56;84.03
10482;BME280;5288;42.334;23.876;2023-06-19T05:52:51;56251.03;;;-140.56;84.33
10482;BME280;5288;42.334;23.876;2023-06-19T05:55:20;56270.78;;;-140.56;83.79
10482;BME280;5288;42.334;23.876;2023-06-19T05:57:47;56245.09;;;-140.56;83.88
10482;BME280;5288;42.334;23.876;2023-06-19T06:00:15;56170.00;;;-140.56;82.72
10482;BME280;5288;42.334;23.876;2023-06-19T06:02:42;56223.34;;;-140.56;82.17
10482;BME280;5288;42.334;23.876;2023-06-19T06:05:09;56197.66;;;-140.56;82.05
10482;BME280;5288;42.334;23.876;2023-06-19T06:07:36;56207.53;;;-140.56;81.82
10482;BME280;5288;42.334;23.876;2023-06-19T06:10:04;56199.63;;;-140.56;81.76
10482;BME280;5288;42.334;23.876;2023-06-19T06:12:34;56189.75;;;-140.56;82.36
10482;BME280;5288;42.334;23.876;2023-06-19T06:15:02;56197.66;;;-140.56;81.12
10482;BME280;5288;42.334;23.876;2023-06-19T06:17:29;56195.69;;;-140.56;80.78
10482;BME280;5288;42.334;23.876;2023-06-19T06:19:56;56168.00;;;-140.56;79.61
10482;BME280;5288;42.334;23.876;2023-06-19T06:22:23;56177.91;;;-140.56;79.22
10482;BME280;5288;42.334;23.876;2023-06-19T06:24:50;56181.84;;;-140.56;77.19
10482;BME280;5288;42.334;23.876;2023-06-19T06:27:18;56152.22;;;-140.56;76.86
10482;BME280;5288;42.334;23.876;2023-06-19T06:29:47;56170.00;;;-140.56;76.63
10482;BME280;5288;42.334;23.876;2023-06-19T06:32:14;56158.13;;;-140.56;77.16
10482;BME280;5288;42.334;23.876;2023-06-19T06:34:41;56166.03;;;-140.56;76.86
10482;BME280;5288;42.334;23.876;2023-06-19T06:37:08;56156.16;;;-140.56;75.02
10482;BME280;5288;42.334;23.876;2023-06-19T06:39:35;56146.28;;;-140.56;68.25
10482;BME280;5288;42.334;23.876;2023-06-19T06:42:02;56162.09;;;-140.56;67.53
10482;BME280;5288;42.334;23.876;2023-06-19T06:44:29;56175.91;;;-140.56;63.99
10482;BME280;5288;42.334;23.876;2023-06-19T06:46:57;56108.72;;;-140.56;63.55
10482;BME280;5288;42.334;23.876;2023-06-19T06:49:24;56132.44;;;-140.56;62.15
10482;BME280;5288;42.334;23.876;2023-06-19T06:51:51;56124.53;;;-140.56;62.93
10482;BME280;5288;42.334;23.876;2023-06-19T06:54:18;56118.59;;;-140.56;57.30
10482;BME280;5288;42.334;23.876;2023-06-19T06:56:46;56124.53;;;-140.56;58.04
10482;BME280;5288;42.334;23.876;2023-06-19T06:59:13;56136.41;;;-140.56;56.74
10482;BME280;5288;42.334;23.876;2023-06-19T07:01:42;56114.66;;;-140.56;56.03
10482;BME280;5288;42.334;23.876;2023-06-19T07:04:10;56106.75;;;-140.56;56.96
10482;BME280;5288;42.334;23.876;2023-06-19T07:06:37;56110.72;;;-140.56;57.04
10482;BME280;5288;42.334;23.876;2023-06-19T07:09:04;56118.59;;;-140.56;54.17
10482;BME280;5288;42.334;23.876;2023-06-19T07:11:31;56118.59;;;-140.56;56.90
10482;BME280;5288;42.334;23.876;2023-06-19T07:13:58;56110.72;;;-140.56;54.91
10482;BME280;5288;42.334;23.876;2023-06-19T07:16:25;56134.41;;;-140.56;56.38
10482;BME280;5288;42.334;23.876;2023-06-19T07:18:52;56098.84;;;-140.56;56.47
10482;BME280;5288;42.334;23.876;2023-06-19T07:21:20;56085.00;;;-140.56;57.09
10482;BME280;5288;42.334;23.876;2023-06-19T07:23:48;56118.59;;;-140.56;54.13
10482;BME280;5288;42.334;23.876;2023-06-19T07:26:15;56053.41;;;-140.56;53.94
10482;BME280;5288;42.334;23.876;2023-06-19T07:28:42;56075.13;;;-140.56;53.82
10482;BME280;5288;42.334;23.876;2023-06-19T07:31:09;56081.06;;;-140.56;53.49
10482;BME280;5288;42.334;23.876;2023-06-19T07:33:36;56071.19;;;-140.56;53.24
10482;BME280;5288;42.334;23.876;2023-06-19T07:36:03;56055.38;;;-140.56;53.65
10482;BME280;5288;42.334;23.876;2023-06-19T07:38:32;56047.47;;;-140.56;54.15
10482;BME280;5288;42.334;23.876;2023-06-19T07:40:59;56053.41;;;-140.56;52.98
10482;BME280;5288;42.334;23.876;2023-06-19T07:43:26;56025.72;;;-140.56;51.14
10482;BME280;5288;42.334;23.876;2023-06-19T07:45:53;56083.03;;;-140.56;48.21
10482;BME280;5288;42.334;23.876;2023-06-19T07:48:20;56075.13;;;-140.56;48.75
10482;BME280;5288;42.334;23.876;2023-06-19T07:50:47;56061.31;;;-140.56;50.83
10482;BME280;5288;42.334;23.876;2023-06-19T07:53:14;56059.31;;;-140.56;51.50
10482;BME280;5288;42.334;23.876;2023-06-19T07:55:42;56045.50;;;-140.56;49.50
10482;BME280;5288;42.334;23.876;2023-06-19T07:58:09;56051.41;;;-140.56;48.00
10482;BME280;5288;42.334;23.876;2023-06-19T08:00:36;56051.41;;;-140.56;45.30
10482;BME280;5288;42.334;23.876;2023-06-19T08:03:03;56063.28;;;-140.56;44.78
10482;BME280;5288;42.334;23.876;2023-06-19T08:05:31;56053.41;;;-140.56;47.03
10482;BME280;5288;42.334;23.876;2023-06-19T08:07:58;56067.22;;;-140.56;45.16
10482;BME280;5288;42.334;23.876;2023-06-19T08:10:27;56037.59;;;-140.56;46.73
10482;BME280;5288;42.334;23.876;2023-06-19T08:12:55;56033.63;;;-140.56;47.13
10482;BME280;5288;42.334;23.876;2023-06-19T08:15:22;56057.34;;;-140.56;46.72
10482;BME280;5288;42.334;23.876;2023-06-19T08:17:49;56005.97;;;-140.56;45.87
10482;BME280;5288;42.334;23.876;2023-06-19T08:20:16;55994.13;;;-140.56;45.96
10482;BME280;5288;42.334;23.876;2023-06-19T08:22:43;56013.88;;;-140.56;44.82
10482;BME280;5288;42.334;23.876;2023-06-19T08:25:10;56037.59;;;-140.56;45.54
10482;BME280;5288;42.334;23.876;2023-06-19T08:27:37;56019.81;;;-140.56;45.98
10482;BME280;5288;42.334;23.876;2023-06-19T08:30:07;56033.63;;;-140.56;46.85
10482;BME280;5288;42.334;23.876;2023-06-19T08:32:34;55992.13;;;-140.56;47.12
10482;BME280;5288;42.334;23.876;2023-06-19T08:35:01;55986.22;;;-140.56;45.84
10482;BME280;5288;42.334;23.876;2023-06-19T08:37:28;55996.09;;;-140.56;45.00
10482;BME280;5288;42.334;23.876;2023-06-19T08:39:55;56027.72;;;-140.56;45.42
10482;BME280;5288;42.334;23.876;2023-06-19T08:42:22;56011.91;;;-140.56;44.26
10482;BME280;5288;42.334;23.876;2023-06-19T08:44:49;55978.31;;;-140.56;47.27
10482;BME280;5288;42.334;23.876;2023-06-19T08:47:18;55992.13;;;-140.56;46.18
10482;BME280;5288;42.334;23.876;2023-06-19T08:49:45;55968.41;;;-140.56;45.16
10482;BME280;5288;42.334;23.876;2023-06-19T08:52:12;55988.19;;;-140.56;46.52
10482;BME280;5288;42.334;23.876;2023-06-19T08:54:39;55984.22;;;-140.56;45.77
10482;BME280;5288;42.334;23.876;2023-06-19T08:57:09;55998.06;;;-140.56;43.94
10482;BME280;5288;42.334;23.876;2023-06-19T08:59:37;56009.91;;;-140.56;43.54
10482;BME280;5288;42.334;23.876;2023-06-19T09:02:04;55978.31;;;-140.56;43.84
10482;BME280;5288;42.334;23.876;2023-06-19T09:04:33;55990.16;;;-140.56;42.96
10482;BME280;5288;42.334;23.876;2023-06-19T09:07:01;55968.41;;;-140.56;43.77
10482;BME280;5288;42.334;23.876;2023-06-19T09:09:29;55970.41;;;-140.56;43.35
10482;BME280;5288;42.334;23.876;2023-06-19T09:12:00;55966.44;;;-140.56;45.88
10482;BME280;5288;42.334;23.876;2023-06-19T09:14:32;55921.00;;;-140.56;43.20
10482;BME280;5288;42.334;23.876;2023-06-19T09:17:01;55934.81;;;-140.56;41.91
10482;BME280;5288;42.334;23.876;2023-06-19T09:19:28;55952.63;;;-140.56;42.28
10482;BME280;5288;42.334;23.876;2023-06-19T09:22:01;55938.78;;;-140.56;44.37
10482;BME280;5288;42.334;23.876;2023-06-19T09:24:33;55966.44;;;-140.56;40.93
10482;BME280;5288;42.334;23.876;2023-06-19T09:27:11;55940.75;;;-140.56;43.21
10482;BME280;5288;42.334;23.876;2023-06-19T09:29:40;55960.53;;;-140.56;41.87
10482;BME280;5288;42.334;23.876;2023-06-19T09:32:17;55932.84;;;-140.56;41.69
10482;BME280;5288;42.334;23.876;2023-06-19T09:34:44;55924.94;;;-140.56;39.99
10482;BME280;5288;42.334;23.876;2023-06-19T09:37:13;55946.69;;;-140.56;41.10
10482;BME280;5288;42.334;23.876;2023-06-19T09:39:40;55950.63;;;-140.56;40.30
10482;BME280;5288;42.334;23.876;2023-06-19T09:42:08;55930.88;;;-140.56;42.07
10482;BME280;5288;42.334;23.876;2023-06-19T09:44:39;55926.94;;;-140.56;40.68
10482;BME280;5288;42.334;23.876;2023-06-19T09:47:14;55930.88;;;-140.56;41.67
10482;BME280;5288;42.334;23.876;2023-06-19T09:49:48;55948.66;;;-140.56;41.01
10482;BME280;5288;42.334;23.876;2023-06-19T09:52:19;55944.72;;;-140.56;40.02
10482;BME280;5288;42.334;23.876;2023-06-19T09:54:47;55946.69;;;-140.56;38.92
10482;BME280;5288;42.334;23.876;2023-06-19T09:57:16;55909.13;;;-140.56;39.33
10482;BME280;5288;42.334;23.876;2023-06-19T09:59:46;55921.00;;;-140.56;39.88
10482;BME280;5288;42.334;23.876;2023-06-19T10:02:15;55940.75;;;-140.56;40.14
10482;BME280;5288;42.334;23.876;2023-06-19T10:04:44;55934.81;;;-140.56;39.11
10482;BME280;5288;42.334;23.876;2023-06-19T10:07:20;55907.16;;;-140.56;39.65
10482;BME280;5288;42.334;23.876;2023-06-19T10:09:58;55905.19;;;-140.56;40.17
10482;BME280;5288;42.334;23.876;2023-06-19T10:12:36;55919.03;;;-140.56;40.10
10482;BME280;5288;42.334;23.876;2023-06-19T10:15:11;55895.31;;;-140.56;40.04
10482;BME280;5288;42.334;23.876;2023-06-19T10:17:45;55940.75;;;-140.56;40.35
10482;BME280;5288;42.334;23.876;2023-06-19T10:20:21;55909.13;;;-140.56;40.76
10482;BME280;5288;42.334;23.876;2023-06-19T10:22:57;55938.78;;;-140.56;38.52
10482;BME280;5288;42.334;23.876;2023-06-19T10:25:27;55897.28;;;-140.56;39.53
10482;BME280;5288;42.334;23.876;2023-06-19T10:27:55;55909.13;;;-140.56;39.36
10482;BME280;5288;42.334;23.876;2023-06-19T10:30:22;55899.25;;;-140.56;38.51
10482;BME280;5288;42.334;23.876;2023-06-19T10:32:49;55875.53;;;-140.56;39.88
10482;BME280;5288;42.334;23.876;2023-06-19T10:35:17;55903.22;;;-140.56;38.25
10482;BME280;5288;42.334;23.876;2023-06-19T10:37:47;55875.53;;;-140.56;38.66
10482;BME280;5288;42.334;23.876;2023-06-19T10:40:16;55905.19;;;-140.56;38.98
10482;BME280;5288;42.334;23.876;2023-06-19T10:42:43;55885.44;;;-140.56;37.17
10482;BME280;5288;42.334;23.876;2023-06-19T10:45:11;55869.63;;;-140.56;37.64
10482;BME280;5288;42.334;23.876;2023-06-19T10:47:39;55873.56;;;-140.56;39.54
10482;BME280;5288;42.334;23.876;2023-06-19T10:50:10;55903.22;;;-140.56;39.60
10482;BME280;5288;42.334;23.876;2023-06-19T10:52:42;55851.84;;;-140.56;38.33
10482;BME280;5288;42.334;23.876;2023-06-19T10:55:10;55905.19;;;-140.56;38.62
10482;BME280;5288;42.334;23.876;2023-06-19T10:57:43;55883.44;;;-140.56;37.92
10482;BME280;5288;42.334;23.876;2023-06-19T11:00:12;55865.66;;;-140.56;37.91
10482;BME280;5288;42.334;23.876;2023-06-19T11:02:49;55851.84;;;-140.56;40.32
10482;BME280;5288;42.334;23.876;2023-06-19T11:05:16;55853.81;;;-140.56;35.71
10482;BME280;5288;42.334;23.876;2023-06-19T11:07:50;55867.63;;;-140.56;37.17
10482;BME280;5288;42.334;23.876;2023-06-19T11:10:19;55810.34;;;-140.56;34.94
10482;BME280;5288;42.334;23.876;2023-06-19T11:12:49;55832.06;;;-140.56;36.66
10482;BME280;5288;42.334;23.876;2023-06-19T11:15:17;55820.22;;;-140.56;37.25
10482;BME280;5288;42.334;23.876;2023-06-19T11:17:44;55857.75;;;-140.56;37.07
10482;BME280;5288;42.334;23.876;2023-06-19T11:20:11;55863.69;;;-140.56;37.04
10482;BME280;5288;42.334;23.876;2023-06-19T11:22:40;55895.31;;;-140.56;38.71
10482;BME280;5288;42.334;23.876;2023-06-19T11:25:08;55893.34;;;-140.56;37.37
10482;BME280;5288;42.334;23.876;2023-06-19T11:27:38;55895.31;;;-140.56;36.35
10482;BME280;5288;42.334;23.876;2023-06-19T11:30:07;55855.78;;;-140.56;35.82
10482;BME280;5288;42.334;23.876;2023-06-19T11:32:36;55849.84;;;-140.56;35.52
10482;BME280;5288;42.334;23.876;2023-06-19T11:35:09;55834.06;;;-140.56;37.48
10482;BME280;5288;42.334;23.876;2023-06-19T11:37:39;55853.81;;;-140.56;37.31
10482;BME280;5288;42.334;23.876;2023-06-19T11:40:07;55828.13;;;-140.56;34.16
10482;BME280;5288;42.334;23.876;2023-06-19T11:42:48;55792.56;;;-140.56;35.70
10482;BME280;5288;42.334;23.876;2023-06-19T11:45:17;55818.25;;;-140.56;34.89
10482;BME280;5288;42.334;23.876;2023-06-19T11:47:44;55814.28;;;-140.56;34.29
10482;BME280;5288;42.334;23.876;2023-06-19T11:50:12;55796.50;;;-140.56;34.08
10482;BME280;5288;42.334;23.876;2023-06-19T11:52:42;55816.25;;;-140.56;35.43
10482;BME280;5288;42.334;23.876;2023-06-19T11:55:10;55816.25;;;-140.56;33.84
10482;BME280;5288;42.334;23.876;2023-06-19T11:57:38;55828.13;;;-140.56;35.54
10482;BME280;5288;42.334;23.876;2023-06-19T12:00:14;55788.59;;;-140.56;33.56
10482;BME280;5288;42.334;23.876;2023-06-19T12:02:43;55873.56;;;-140.56;34.21
10482;BME280;5288;42.334;23.876;2023-06-19T12:05:10;55839.97;;;-140.56;36.17
10482;BME280;5288;42.334;23.876;2023-06-19T12:07:38;55822.19;;;-140.56;35.11
10482;BME280;5288;42.334;23.876;2023-06-19T12:10:06;55834.06;;;-140.56;35.22
10482;BME280;5288;42.334;23.876;2023-06-19T12:12:36;55843.94;;;-140.56;32.39
10482;BME280;5288;42.334;23.876;2023-06-19T12:15:05;55853.81;;;-140.56;32.82
10482;BME280;5288;42.334;23.876;2023-06-19T12:17:32;55826.16;;;-140.56;31.94
10482;BME280;5288;42.334;23.876;2023-06-19T12:20:02;55808.34;;;-140.56;34.21
10482;BME280;5288;42.334;23.876;2023-06-19T12:22:31;55766.88;;;-140.56;33.63
10482;BME280;5288;42.334;23.876;2023-06-19T12:24:58;55756.97;;;-140.56;34.11
10482;BME280;5288;42.334;23.876;2023-06-19T12:27:25;55784.66;;;-140.56;33.33
10482;BME280;5288;42.334;23.876;2023-06-19T12:29:52;55782.66;;;-140.56;33.53
10482;BME280;5288;42.334;23.876;2023-06-19T12:32:19;55747.09;;;-140.56;32.73
10482;BME280;5288;42.334;23.876;2023-06-19T12:34:47;55753.03;;;-140.56;32.89
10482;BME280;5288;42.334;23.876;2023-06-19T12:37:16;55804.41;;;-140.56;31.20
10482;BME280;5288;42.334;23.876;2023-06-19T12:39:44;55788.59;;;-140.56;31.45
10482;BME280;5288;42.334;23.876;2023-06-19T12:42:11;55739.19;;;-140.56;32.12